Time;durP1;ratioP1;P1;durP2;ratioP2;P2;SDS_P1;SDS_P2;PMS_P1;PMS_P2;Temp;Humidity;BMP_temperature;BMP_pressure;BME280_temperature;BME280_humidity;BME280_pressure;Samples;Min_cycle;Max_cycle;Signal;HPM_P1;HPM_P2
2022/05/08 05:50:07;;;;;;;30.77;28.53;;;11.80;99.90;;;;;;5119730;23;20499;-76
2022/05/08 05:52:35;;;;;;;30.00;27.70;;;11.90;99.90;;;;;;4979579;28;20447;-74
2022/05/08 05:55:03;;;;;;;30.27;27.93;;;12.00;99.90;;;;;;4975924;28;20975;-76
2022/05/08 05:57:29;;;;;;;33.60;30.90;;;12.10;99.90;;;;;;4985552;28;20466;-76
2022/05/08 05:59:56;;;;;;;30.13;27.77;;;12.20;99.90;;;;;;4982057;28;21011;-75
2022/05/08 06:02:23;;;;;;;31.17;28.77;;;12.40;99.90;;;;;;4980613;28;20992;-75
2022/05/08 06:04:49;;;;;;;32.13;29.70;;;12.40;99.90;;;;;;4980704;28;20446;-76
2022/05/08 06:07:17;;;;;;;31.00;28.10;;;12.40;99.90;;;;;;4977167;28;20456;-75
2022/05/08 06:09:44;;;;;;;31.47;28.90;;;12.50;99.90;;;;;;4972601;28;20511;-75
2022/05/08 06:12:11;;;;;;;30.97;28.47;;;12.60;99.90;;;;;;4972295;28;21221;-74
2022/05/08 06:14:38;;;;;;;32.63;29.73;;;12.60;99.90;;;;;;4972456;28;20462;-76
2022/05/08 06:17:05;;;;;;;31.97;29.60;;;12.70;99.90;;;;;;4972582;28;20462;-77
2022/05/08 06:19:32;;;;;;;30.67;28.17;;;12.80;99.90;;;;;;4972467;28;20450;-77
2022/05/08 06:21:59;;;;;;;28.87;26.80;;;13.00;99.90;;;;;;4972237;28;20462;-77
2022/05/08 06:24:27;;;;;;;28.87;26.67;;;13.10;99.90;;;;;;4972155;28;20487;-77
2022/05/08 06:26:54;;;;;;;32.67;29.93;;;13.10;99.90;;;;;;4971953;28;21315;-77
2022/05/08 06:29:21;;;;;;;31.20;28.67;;;13.30;99.90;;;;;;4972236;28;21012;-75
2022/05/08 06:31:50;;;;;;;29.50;27.40;;;13.50;99.90;;;;;;4972476;28;20517;-76
2022/05/08 06:34:17;;;;;;;31.87;29.37;;;13.60;99.90;;;;;;4971952;28;20551;-75
2022/05/08 06:36:44;;;;;;;30.10;27.80;;;13.80;99.90;;;;;;4972005;28;20463;-76
2022/05/08 06:39:10;;;;;;;29.17;27.00;;;14.20;99.90;;;;;;4971816;28;20452;-75
2022/05/08 06:41:39;;;;;;;28.17;25.97;;;14.40;99.90;;;;;;4980782;28;20452;-75
2022/05/08 06:44:05;;;;;;;28.53;26.43;;;14.50;99.90;;;;;;4979461;28;20439;-76
2022/05/08 06:46:34;;;;;;;28.23;26.13;;;14.70;99.90;;;;;;4980976;28;20465;-75
2022/05/08 06:49:01;;;;;;;28.43;26.33;;;14.70;99.90;;;;;;4961269;28;20488;-75
2022/05/08 06:51:28;;;;;;;27.40;25.40;;;14.60;99.90;;;;;;4960054;28;20441;-75
2022/05/08 06:53:54;;;;;;;26.27;24.40;;;14.60;99.90;;;;;;4961130;28;20443;-74
2022/05/08 06:56:21;;;;;;;27.60;25.67;;;14.80;99.90;;;;;;4960770;28;20915;-74
2022/05/08 07:01:38;;;;;;;27.80;25.70;;;15.00;99.90;;;;;;4961860;28;20949;-75
2022/05/08 07:04:06;;;;;;;27.30;25.40;;;15.30;99.90;;;;;;4963589;28;20943;-75
2022/05/08 07:06:33;;;;;;;29.03;26.80;;;15.80;99.90;;;;;;4965466;28;20447;-76
2022/05/08 07:09:00;;;;;;;26.63;24.73;;;15.80;99.90;;;;;;4965177;28;21814;-76
2022/05/08 07:11:26;;;;;;;30.20;27.97;;;16.10;99.90;;;;;;4963685;28;20440;-76
2022/05/08 07:13:54;;;;;;;30.43;27.90;;;16.20;99.90;;;;;;4965150;28;20443;-75
2022/05/08 07:16:21;;;;;;;27.53;25.53;;;16.30;99.90;;;;;;4965235;28;20938;-76
2022/05/08 07:18:48;;;;;;;28.37;25.97;;;16.20;99.90;;;;;;4963698;28;20982;-76
2022/05/08 07:21:15;;;;;;;27.43;25.40;;;16.10;99.90;;;;;;4964625;28;20986;-76
2022/05/08 07:23:41;;;;;;;27.40;25.40;;;15.90;99.90;;;;;;4965125;28;21272;-76
2022/05/08 07:26:08;;;;;;;27.30;25.20;;;15.80;99.90;;;;;;4963354;28;20448;-75
2022/05/08 07:28:35;;;;;;;28.03;26.03;;;16.00;99.90;;;;;;4963505;28;20930;-75
2022/05/08 07:31:03;;;;;;;27.23;25.33;;;16.20;99.90;;;;;;4963821;28;20488;-76
2022/05/08 07:33:34;;;;;;;28.53;26.47;;;16.50;99.90;;;;;;4963396;28;20444;-77
2022/05/08 07:36:15;;;;;;;27.23;25.23;;;16.40;99.90;;;;;;4963794;28;20476;-77
2022/05/08 07:38:44;;;;;;;26.53;24.63;;;16.50;99.90;;;;;;4965015;28;21091;-75
2022/05/08 07:41:11;;;;;;;27.97;25.87;;;16.60;99.90;;;;;;4963449;28;20433;-77
2022/05/08 07:43:38;;;;;;;27.37;25.27;;;16.60;99.90;;;;;;4963712;28;20619;-78
2022/05/08 07:46:06;;;;;;;27.03;25.13;;;16.80;99.90;;;;;;4965214;28;20805;-76
2022/05/08 07:48:33;;;;;;;28.43;26.23;;;17.40;99.90;;;;;;4963633;28;20543;-76
2022/05/08 07:51:00;;;;;;;25.97;24.07;;;17.80;99.90;;;;;;4964488;28;20587;-78
2022/05/08 07:53:28;;;;;;;27.43;24.97;;;18.10;99.90;;;;;;4964918;28;20459;-77
2022/05/08 07:55:55;;;;;;;26.03;24.33;;;18.30;99.90;;;;;;4963567;28;20445;-78
2022/05/08 07:58:22;;;;;;;27.23;25.27;;;18.50;99.90;;;;;;4966136;28;20474;-77
2022/05/08 08:00:53;;;;;;;26.57;24.90;;;18.80;99.90;;;;;;4964930;28;20455;-76
2022/05/08 08:03:21;;;;;;;27.37;25.57;;;19.10;99.90;;;;;;4964369;28;20463;-77
2022/05/08 08:05:48;;;;;;;25.63;23.60;;;19.50;99.90;;;;;;4962877;28;20440;-75
2022/05/08 08:08:16;;;;;;;24.50;22.90;;;19.40;99.90;;;;;;4963699;28;20506;-75
2022/05/08 08:10:42;;;;;;;24.27;22.57;;;19.90;99.90;;;;;;4964445;28;20492;-75
2022/05/08 08:13:09;;;;;;;24.73;23.10;;;20.60;99.90;;;;;;4961604;28;20457;-75
2022/05/08 08:15:36;;;;;;;25.93;24.03;;;21.10;99.90;;;;;;4965492;28;20481;-76
2022/05/08 08:18:03;;;;;;;26.70;24.90;;;21.30;99.50;;;;;;4965728;28;20448;-75
2022/05/08 08:20:31;;;;;;;24.67;23.00;;;20.70;99.90;;;;;;4970479;28;20506;-75
2022/05/08 08:22:58;;;;;;;25.00;23.30;;;21.30;99.50;;;;;;4963022;28;20453;-74
2022/05/08 08:25:25;;;;;;;25.67;23.93;;;22.20;98.30;;;;;;4962797;28;20795;-75
2022/05/08 08:27:51;;;;;;;25.60;24.00;;;22.50;97.00;;;;;;4964392;28;20941;-76
2022/05/08 08:30:18;;;;;;;27.17;25.50;;;23.30;95.90;;;;;;4963314;28;20535;-75
2022/05/08 08:32:45;;;;;;;27.27;25.57;;;24.30;93.80;;;;;;4965066;28;20444;-76
2022/05/08 08:35:12;;;;;;;25.20;23.53;;;25.20;91.60;;;;;;4973219;28;20447;-76
2022/05/08 08:37:40;;;;;;;25.00;23.30;;;25.50;90.10;;;;;;4973032;28;20464;-75
2022/05/08 08:40:07;;;;;;;25.37;23.77;;;25.80;89.60;;;;;;4970367;28;21129;-76
2022/05/08 08:42:37;;;;;;;23.47;22.07;;;26.00;88.00;;;;;;4962852;28;20448;-77
2022/05/08 08:47:55;;;;;;;24.20;22.80;;;26.50;86.80;;;;;;4962995;28;20538;-75
2022/05/08 08:50:24;;;;;;;23.17;21.83;;;26.00;85.80;;;;;;4961748;28;20488;-76
2022/05/08 08:52:53;;;;;;;24.40;23.00;;;26.70;84.60;;;;;;4962957;28;20447;-75
2022/05/08 08:55:22;;;;;;;23.40;22.03;;;27.60;80.90;;;;;;4963927;28;20459;-78
2022/05/08 08:57:49;;;;;;;23.10;21.83;;;27.70;78.40;;;;;;4962842;28;20731;-78
2022/05/08 09:00:17;;;;;;;22.83;21.53;;;27.60;78.60;;;;;;4969396;28;20822;-76
2022/05/08 09:02:44;;;;;;;24.10;22.60;;;27.80;78.10;;;;;;4972517;28;20448;-75
2022/05/08 09:05:12;;;;;;;21.93;20.70;;;28.10;77.30;;;;;;4972146;28;20458;-75
2022/05/08 09:07:40;;;;;;;23.60;22.30;;;28.20;77.90;;;;;;4972246;28;20452;-75
2022/05/08 09:10:14;;;;;;;22.80;21.40;;;28.30;76.00;;;;;;4969440;28;20513;-76
2022/05/08 09:12:42;;;;;;;22.77;21.47;;;27.80;76.80;;;;;;4972641;28;20522;-76
2022/05/08 09:15:19;;;;;;;22.60;21.30;;;27.90;77.00;;;;;;4969943;28;20448;-76
2022/05/08 09:17:47;;;;;;;23.67;22.30;;;27.80;76.20;;;;;;4972413;28;20451;-78
2022/05/08 09:20:29;;;;;;;21.33;20.23;;;27.70;76.80;;;;;;4972318;28;20498;-77
2022/05/08 09:23:04;;;;;;;20.17;19.07;;;27.20;77.30;;;;;;4971087;28;20935;-77
2022/05/08 09:25:50;;;;;;;20.93;19.47;;;26.40;79.10;;;;;;4972066;28;20439;-77
2022/05/08 09:28:19;;;;;;;21.27;19.80;;;26.20;80.20;;;;;;4971067;28;20459;-78
2022/05/08 09:30:57;;;;;;;21.00;19.60;;;26.30;80.70;;;;;;4971984;28;20483;-78
2022/05/08 09:33:29;;;;;;;21.13;20.03;;;26.60;80.10;;;;;;4971915;28;20494;-77
2022/05/08 09:35:57;;;;;;;21.73;20.53;;;26.60;79.20;;;;;;4971804;28;20447;-77
2022/05/08 09:38:39;;;;;;;22.97;21.50;;;25.60;82.00;;;;;;4971927;28;20448;-77
2022/05/08 09:41:08;;;;;;;21.20;20.00;;;25.10;84.40;;;;;;4971926;28;20440;-77
2022/05/08 09:43:35;;;;;;;21.40;20.13;;;24.40;86.80;;;;;;4971601;28;20455;-77
2022/05/08 09:46:04;;;;;;;20.60;19.50;;;24.70;86.40;;;;;;4971798;28;20467;-79
2022/05/08 09:48:32;;;;;;;20.83;19.73;;;25.40;85.00;;;;;;4968965;28;20494;-76
2022/05/08 09:51:02;;;;;;;21.33;20.00;;;25.90;84.10;;;;;;4971562;28;20491;-76
2022/05/08 09:53:29;;;;;;;21.63;20.30;;;26.40;83.20;;;;;;4969011;28;20456;-76
2022/05/08 09:55:58;;;;;;;21.30;20.10;;;26.30;83.00;;;;;;4971322;28;20448;-79
2022/05/08 09:58:26;;;;;;;21.93;20.70;;;26.50;82.90;;;;;;4971150;28;20458;-77
2022/05/08 10:00:54;;;;;;;19.13;18.00;;;27.30;80.10;;;;;;4971316;28;20949;-80
2022/05/08 10:03:22;;;;;;;20.90;19.63;;;27.00;78.30;;;;;;4971466;28;20568;-80
2022/05/08 10:05:49;;;;;;;19.80;18.73;;;27.30;78.20;;;;;;4968957;28;20460;-77
2022/05/08 10:08:17;;;;;;;19.73;18.63;;;27.10;79.50;;;;;;4971695;28;20549;-77
2022/05/08 10:14:00;;;;;;;20.17;19.07;;;26.70;79.20;;;;;;4930209;29;20429;-76
2022/05/08 10:16:46;;;;;;;20.70;19.50;;;25.90;79.80;;;;;;4930267;29;20989;-77
2022/05/08 10:19:46;;;;;;;18.67;17.67;;;25.10;82.70;;;;;;4954209;28;20981;-75
2022/05/08 10:22:14;;;;;;;17.30;16.20;;;25.00;80.50;;;;;;4892520;29;20464;-78
2022/05/08 10:24:43;;;;;;;18.13;17.13;;;24.90;80.10;;;;;;4952354;28;20615;-75
2022/05/08 10:27:11;;;;;;;17.73;16.67;;;25.20;80.00;;;;;;4968607;28;20448;-76
2022/05/08 10:29:39;;;;;;;16.57;15.70;;;25.30;78.00;;;;;;4970696;28;20484;-75
2022/05/08 10:32:09;;;;;;;16.53;15.40;;;26.10;74.10;;;;;;4970814;28;20491;-75
2022/05/08 10:34:38;;;;;;;15.73;14.93;;;25.80;73.20;;;;;;4971406;28;20448;-77
2022/05/08 10:37:28;;;;;;;18.00;16.97;;;26.20;73.30;;;;;;4970483;28;20448;-77
2022/05/08 10:39:55;;;;;;;15.33;14.53;;;26.00;71.30;;;;;;4969113;28;20448;-76
2022/05/08 10:42:46;;;;;;;16.00;14.90;;;25.90;73.10;;;;;;4970828;28;20448;-76
2022/05/08 10:45:40;;;;;;;14.97;14.27;;;25.00;72.70;;;;;;4965315;28;20452;-76
2022/05/08 10:48:17;;;;;;;16.10;15.30;;;24.80;73.50;;;;;;4970791;28;20475;-78
2022/05/08 10:50:45;;;;;;;15.67;14.90;;;24.40;72.80;;;;;;4970628;28;20479;-77
2022/05/08 10:53:32;;;;;;;16.70;15.50;;;25.00;73.40;;;;;;4970576;28;20455;-77
2022/05/08 10:56:01;;;;;;;15.70;14.97;;;25.30;74.20;;;;;;4967018;28;20494;-77
2022/05/08 10:58:28;;;;;;;15.77;14.83;;;25.50;73.50;;;;;;4970653;28;20494;-76
2022/05/08 11:01:04;;;;;;;16.20;15.30;;;26.20;72.30;;;;;;4970422;28;20439;-76
2022/05/08 11:03:33;;;;;;;16.17;15.27;;;27.10;70.30;;;;;;4968815;28;20467;-76
2022/05/08 11:06:00;;;;;;;16.40;15.40;;;26.70;68.30;;;;;;4970779;28;20539;-76
2022/05/08 11:08:31;;;;;;;16.50;15.57;;;26.00;70.30;;;;;;4970567;28;20934;-76
2022/05/08 11:10:59;;;;;;;15.53;14.53;;;25.70;71.30;;;;;;4970272;28;20491;-76
2022/05/08 11:13:36;;;;;;;15.73;15.03;;;25.90;71.40;;;;;;4970525;28;20478;-76
2022/05/08 11:16:05;;;;;;;17.00;15.80;;;26.20;70.70;;;;;;4970593;28;20447;-77
2022/05/08 11:18:32;;;;;;;16.57;15.77;;;26.10;70.60;;;;;;4970638;28;20510;-77
2022/05/08 11:21:00;;;;;;;16.87;15.97;;;26.60;68.80;;;;;;4970508;28;20443;-77
2022/05/08 11:23:29;;;;;;;16.60;15.70;;;26.70;67.80;;;;;;4970505;28;20579;-77
2022/05/08 11:25:57;;;;;;;16.97;16.00;;;26.80;68.90;;;;;;4970459;28;21003;-77
2022/05/08 11:28:25;;;;;;;16.17;15.37;;;27.30;68.80;;;;;;4970274;28;20455;-75
2022/05/08 11:30:53;;;;;;;16.07;15.27;;;27.90;66.20;;;;;;4970481;28;20479;-78
2022/05/08 11:36:25;;;;;;;15.90;15.00;;;26.70;67.10;;;;;;4969221;28;20435;-76
2022/05/08 11:38:55;;;;;;;15.80;15.00;;;27.00;67.60;;;;;;4968220;28;20452;-76
2022/05/08 11:41:24;;;;;;;16.00;15.10;;;27.10;67.70;;;;;;4970484;28;20454;-76
2022/05/08 11:43:52;;;;;;;15.40;14.60;;;28.00;66.40;;;;;;4967844;28;20440;-76
2022/05/08 11:46:20;;;;;;;16.30;15.50;;;27.10;64.40;;;;;;4970323;28;20942;-76
2022/05/08 11:48:49;;;;;;;16.27;15.47;;;26.60;67.20;;;;;;4972334;28;21012;-79
2022/05/08 11:51:18;;;;;;;15.67;14.83;;;26.30;68.20;;;;;;4973434;28;21005;-77
2022/05/08 11:53:47;;;;;;;16.77;15.73;;;25.50;70.50;;;;;;4973982;28;20806;-76
2022/05/08 11:56:24;;;;;;;16.67;15.77;;;25.30;72.00;;;;;;4973719;28;20543;-76
2022/05/08 11:58:51;;;;;;;15.20;14.50;;;25.60;70.80;;;;;;4971329;28;20451;-76
2022/05/08 12:01:23;;;;;;;15.87;15.07;;;26.40;69.30;;;;;;4973726;28;20495;-76
2022/05/08 12:03:51;;;;;;;14.07;13.40;;;27.40;67.50;;;;;;4971129;28;20469;-76
2022/05/08 12:06:18;;;;;;;15.20;14.50;;;27.60;59.90;;;;;;4973564;28;20456;-75
2022/05/08 12:08:45;;;;;;;12.43;11.77;;;27.30;59.60;;;;;;4973192;28;20813;-76
2022/05/08 12:11:34;;;;;;;14.60;13.90;;;26.80;58.60;;;;;;4973280;28;20606;-76
2022/05/08 12:14:03;;;;;;;14.20;13.60;;;26.90;64.20;;;;;;4972534;28;20439;-76
2022/05/08 12:16:31;;;;;;;14.40;13.70;;;27.20;58.50;;;;;;4970595;28;21226;-77
2022/05/08 12:19:19;;;;;;;15.67;14.70;;;27.50;60.00;;;;;;4973543;28;20466;-77
2022/05/08 12:21:47;;;;;;;15.67;14.97;;;27.20;62.70;;;;;;4972899;28;20862;-77
2022/05/08 12:24:17;;;;;;;15.53;14.73;;;27.10;64.10;;;;;;4973074;28;20957;-77
2022/05/08 12:26:44;;;;;;;14.70;14.10;;;27.60;62.20;;;;;;4972934;28;20824;-77
2022/05/08 12:29:22;;;;;;;15.27;14.67;;;28.20;61.40;;;;;;4970612;28;20817;-77
2022/05/08 12:31:51;;;;;;;14.60;14.00;;;28.30;59.00;;;;;;4972917;28;20884;-78
2022/05/08 12:34:20;;;;;;;14.30;13.60;;;27.50;59.70;;;;;;4973073;28;20876;-77
2022/05/08 12:36:48;;;;;;;14.83;14.13;;;27.50;60.90;;;;;;4973017;28;20436;-77
2022/05/08 12:39:15;;;;;;;14.50;13.70;;;28.00;59.70;;;;;;4972918;28;20443;-77
2022/05/08 12:41:42;;;;;;;14.97;14.07;;;27.20;62.70;;;;;;4972855;28;20486;-77
2022/05/08 12:44:09;;;;;;;14.70;14.10;;;26.80;62.10;;;;;;4970364;28;20451;-77
2022/05/08 12:46:36;;;;;;;15.40;14.70;;;26.40;63.90;;;;;;4972652;28;20440;-77
2022/05/08 12:49:04;;;;;;;14.60;13.90;;;26.50;64.30;;;;;;4972744;28;20505;-77
2022/05/08 12:51:35;;;;;;;15.43;14.60;;;26.90;61.50;;;;;;4970401;28;20486;-77
2022/05/08 12:54:03;;;;;;;14.70;13.87;;;26.40;61.60;;;;;;4972184;28;20957;-77
2022/05/08 12:56:30;;;;;;;14.57;13.70;;;26.00;62.80;;;;;;4969914;28;20476;-76
2022/05/08 13:01:41;;;;;;;14.57;13.77;;;25.00;63.20;;;;;;4971426;28;20506;-76
2022/05/08 13:04:08;;;;;;;13.70;13.00;;;24.50;65.10;;;;;;4972356;28;20436;-77
2022/05/08 13:06:36;;;;;;;13.80;13.20;;;24.40;65.00;;;;;;4972811;28;20444;-76
2022/05/08 13:09:04;;;;;;;14.33;13.60;;;24.50;65.10;;;;;;4972405;28;20522;-76
2022/05/08 13:11:31;;;;;;;15.70;14.90;;;24.70;65.30;;;;;;4969730;28;20479;-76
2022/05/08 13:13:57;;;;;;;19.40;18.07;;;25.00;65.90;;;;;;4972126;28;21056;-77
2022/05/08 13:16:24;;;;;;;15.70;14.80;;;25.10;64.00;;;;;;4971819;28;20551;-76
2022/05/08 13:18:51;;;;;;;12.90;12.40;;;24.50;64.90;;;;;;4972333;28;20443;-76
2022/05/08 13:21:18;;;;;;;13.80;13.13;;;24.30;64.80;;;;;;4972138;28;20452;-76
2022/05/08 13:23:47;;;;;;;12.87;12.27;;;24.20;65.70;;;;;;4971790;28;20957;-76
2022/05/08 13:26:14;;;;;;;13.50;12.60;;;24.40;65.90;;;;;;4971962;28;20456;-76
2022/05/08 13:28:40;;;;;;;12.73;12.03;;;24.30;65.50;;;;;;4971902;28;20455;-77
2022/05/08 13:31:08;;;;;;;13.90;13.17;;;24.50;66.60;;;;;;4966372;28;20880;-77
2022/05/08 13:33:35;;;;;;;13.37;12.77;;;24.90;63.60;;;;;;4962037;28;20456;-79
2022/05/08 13:36:03;;;;;;;14.40;13.50;;;25.10;63.80;;;;;;4959454;28;20512;-76
2022/05/08 13:38:29;;;;;;;13.77;12.77;;;25.30;64.40;;;;;;4960221;28;20443;-76
2022/05/08 13:40:59;;;;;;;13.67;12.77;;;24.90;62.40;;;;;;4963135;28;20459;-76
2022/05/08 13:43:26;;;;;;;14.50;13.80;;;24.10;63.80;;;;;;4962256;28;20457;-76
2022/05/08 13:45:53;;;;;;;13.77;13.07;;;23.80;66.00;;;;;;4960805;28;20507;-77
2022/05/08 13:48:21;;;;;;;13.90;13.20;;;23.90;66.60;;;;;;4962447;28;20555;-77
2022/05/08 13:50:49;;;;;;;13.50;12.97;;;24.10;66.00;;;;;;4962322;28;20448;-76
2022/05/08 13:53:16;;;;;;;13.90;13.30;;;24.00;65.30;;;;;;4960719;28;20510;-76
2022/05/08 13:55:46;;;;;;;14.17;13.37;;;24.20;66.20;;;;;;4962333;28;20451;-77
2022/05/08 13:58:14;;;;;;;16.50;15.50;;;24.50;66.00;;;;;;4962679;28;20481;-77
2022/05/08 14:00:45;;;;;;;14.77;13.93;;;24.60;66.50;;;;;;4961000;28;21287;-76
2022/05/08 14:03:12;;;;;;;15.50;14.60;;;24.50;66.60;;;;;;4960813;28;20452;-77
2022/05/08 14:05:39;;;;;;;14.90;14.00;;;24.20;67.60;;;;;;4960686;28;20453;-76
2022/05/08 14:08:08;;;;;;;15.23;14.47;;;24.30;68.30;;;;;;4961998;28;20530;-76
2022/05/08 14:10:36;;;;;;;15.00;14.30;;;24.00;68.30;;;;;;4961990;28;20510;-76
2022/05/08 14:13:02;;;;;;;14.57;13.80;;;23.90;69.70;;;;;;4960879;28;20852;-76
2022/05/08 14:15:31;;;;;;;13.40;12.70;;;23.90;68.80;;;;;;4960778;28;20456;-76
2022/05/08 14:17:58;;;;;;;13.70;13.10;;;23.60;69.50;;;;;;4960398;28;20480;-76
2022/05/08 14:20:26;;;;;;;14.20;13.30;;;23.40;70.40;;;;;;4961546;28;20454;-75
2022/05/08 14:22:53;;;;;;;14.60;13.90;;;23.30;70.70;;;;;;4962386;28;20505;-76
2022/05/08 14:25:20;;;;;;;14.80;14.10;;;23.40;71.90;;;;;;4960840;28;20456;-76
2022/05/08 14:27:46;;;;;;;14.83;14.13;;;23.40;72.30;;;;;;4961222;28;20849;-76
2022/05/08 14:30:13;;;;;;;15.27;14.57;;;23.20;72.60;;;;;;4962122;28;20459;-76
2022/05/08 14:38:21;;;;;;;14.53;13.70;;;23.20;72.80;;;;;;4925519;28;20610;-76
2022/05/08 14:40:48;;;;;;;14.47;13.47;;;23.10;72.70;;;;;;4960979;28;20443;-76
2022/05/08 14:43:16;;;;;;;13.43;12.83;;;23.10;73.00;;;;;;4962429;28;20440;-76
2022/05/08 14:45:42;;;;;;;14.20;13.60;;;23.40;72.60;;;;;;4961437;28;20454;-76
2022/05/08 14:48:11;;;;;;;15.83;15.03;;;23.80;72.20;;;;;;4961330;28;20467;-76
2022/05/08 14:50:38;;;;;;;15.87;14.63;;;24.10;72.20;;;;;;4960314;28;20444;-76
2022/05/08 14:53:10;;;;;;;14.77;13.97;;;24.10;70.70;;;;;;4961221;28;20542;-75
2022/05/08 14:55:37;;;;;;;13.97;13.27;;;24.00;69.30;;;;;;4962272;28;20976;-76
2022/05/08 14:58:04;;;;;;;15.13;14.43;;;24.10;71.40;;;;;;4960918;28;20460;-77
2022/05/08 15:00:31;;;;;;;14.00;13.37;;;24.30;71.50;;;;;;4960641;28;20452;-76
2022/05/08 15:02:57;;;;;;;14.13;13.53;;;24.10;71.20;;;;;;4961742;28;20435;-76
2022/05/08 15:05:26;;;;;;;14.13;13.53;;;24.40;70.70;;;;;;4960737;28;20495;-77
2022/05/08 15:07:52;;;;;;;14.73;13.80;;;24.80;70.80;;;;;;4959887;28;20444;-76
2022/05/08 15:10:19;;;;;;;13.90;13.13;;;24.10;68.80;;;;;;4959252;28;20485;-75
2022/05/08 15:12:46;;;;;;;13.67;13.07;;;23.30;71.20;;;;;;4951801;29;20484;-76
2022/05/08 15:15:13;;;;;;;13.67;12.97;;;23.20;70.70;;;;;;4956541;28;21150;-76
2022/05/08 15:18:47;;;;;;;13.43;12.80;;;23.30;71.90;;;;;;4959758;28;20445;-76
2022/05/08 15:20:28;;;;;;;13.87;13.00;;;23.40;72.10;;;;;;4960243;28;20835;-76
2022/05/08 15:22:55;;;;;;;12.93;12.10;;;23.50;72.30;;;;;;4961319;28;20506;-77
2022/05/08 15:25:23;;;;;;;13.97;13.37;;;23.50;71.10;;;;;;4963938;28;20540;-76
2022/05/08 15:27:49;;;;;;;13.40;12.70;;;23.50;71.80;;;;;;4964347;28;20448;-76
2022/05/08 15:30:16;;;;;;;13.83;13.13;;;23.50;71.80;;;;;;4965557;28;20444;-76
2022/05/08 15:32:43;;;;;;;13.67;13.07;;;23.50;71.10;;;;;;4962817;28;20776;-76
2022/05/08 15:35:11;;;;;;;14.00;13.30;;;23.40;71.60;;;;;;4964656;28;20449;-76
2022/05/08 15:37:39;;;;;;;13.20;12.53;;;23.20;72.20;;;;;;4963438;28;20456;-76
2022/05/08 15:40:07;;;;;;;13.40;12.80;;;23.30;71.10;;;;;;4964820;28;20448;-75
2022/05/08 15:42:34;;;;;;;14.23;13.53;;;23.50;71.60;;;;;;4965254;28;20455;-76
2022/05/08 15:45:01;;;;;;;14.17;13.27;;;23.20;71.10;;;;;;4963254;28;20998;-76
2022/05/08 15:47:28;;;;;;;14.30;13.60;;;23.40;71.30;;;;;;4964335;28;20467;-76
2022/05/08 15:49:54;;;;;;;13.13;12.43;;;23.50;70.90;;;;;;4964793;28;20472;-76
2022/05/08 15:52:21;;;;;;;13.87;13.27;;;23.30;70.90;;;;;;4963249;28;20480;-76
2022/05/08 15:54:49;;;;;;;14.80;13.83;;;23.20;71.90;;;;;;4963828;28;20448;-76
2022/05/08 15:57:16;;;;;;;14.73;13.80;;;23.30;71.40;;;;;;4964905;28;20455;-75
2022/05/08 15:59:42;;;;;;;14.17;13.23;;;23.50;71.40;;;;;;4962995;28;20503;-76
2022/05/08 16:02:10;;;;;;;14.23;13.50;;;23.40;71.30;;;;;;4963629;28;21247;-75
2022/05/08 16:04:37;;;;;;;14.63;13.83;;;22.90;71.40;;;;;;4964740;28;20455;-75
2022/05/08 16:07:04;;;;;;;13.23;12.63;;;22.60;72.30;;;;;;4963003;28;20448;-75
2022/05/08 16:09:31;;;;;;;13.07;12.50;;;22.50;72.70;;;;;;4963479;28;20471;-75
2022/05/08 16:11:59;;;;;;;13.70;12.90;;;22.20;73.20;;;;;;4964498;28;21051;-76
2022/05/08 16:25:38;;;;;;;13.63;13.00;;;22.40;73.60;;;;;;4951170;28;20960;-76
2022/05/08 16:28:06;;;;;;;14.83;13.87;;;22.30;73.90;;;;;;4962855;28;20452;-76
2022/05/08 16:30:33;;;;;;;13.43;12.77;;;22.30;74.40;;;;;;4962898;28;20451;-76
2022/05/08 16:32:59;;;;;;;13.70;13.10;;;22.40;75.90;;;;;;4964078;28;20483;-76
2022/05/08 16:35:26;;;;;;;14.63;13.47;;;22.60;75.90;;;;;;4961741;28;20460;-77
2022/05/08 16:37:53;;;;;;;13.20;12.60;;;22.60;77.20;;;;;;4962754;28;20522;-76
2022/05/08 16:40:21;;;;;;;13.40;12.60;;;22.40;78.00;;;;;;4964191;28;20451;-75
2022/05/08 16:42:49;;;;;;;13.77;13.07;;;22.30;79.50;;;;;;4962822;28;20452;-76
2022/05/08 16:45:17;;;;;;;14.03;13.30;;;22.30;79.50;;;;;;4962009;28;20510;-75
2022/05/08 16:47:43;;;;;;;13.67;12.97;;;22.00;80.10;;;;;;4961888;28;20531;-77
2022/05/08 16:50:10;;;;;;;13.97;13.17;;;22.10;80.80;;;;;;4962560;28;21154;-76
2022/05/08 16:52:37;;;;;;;13.37;12.57;;;22.00;81.10;;;;;;4963478;28;20490;-76
2022/05/08 16:55:04;;;;;;;13.90;13.20;;;21.80;81.30;;;;;;4962239;28;20497;-76
2022/05/08 16:57:31;;;;;;;14.03;13.33;;;21.80;82.00;;;;;;4962757;28;20480;-76
2022/05/08 16:59:58;;;;;;;13.70;13.00;;;21.60;82.80;;;;;;4963487;28;20841;-76
2022/05/08 17:02:26;;;;;;;14.37;13.67;;;21.70;82.80;;;;;;4961632;28;20449;-76
2022/05/08 17:04:53;;;;;;;13.63;12.83;;;21.50;83.30;;;;;;4966527;28;20455;-76
2022/05/08 17:07:19;;;;;;;13.50;12.80;;;21.40;83.80;;;;;;4972496;28;20462;-76
2022/05/08 17:09:46;;;;;;;13.43;12.53;;;21.30;84.90;;;;;;4972019;28;20506;-76
2022/05/08 17:12:14;;;;;;;13.33;12.40;;;21.40;84.80;;;;;;4972267;28;20515;-76
2022/05/08 17:14:41;;;;;;;14.20;13.47;;;21.30;84.40;;;;;;4972866;28;20474;-76
2022/05/08 17:17:09;;;;;;;13.30;12.70;;;21.30;85.10;;;;;;4972995;28;20467;-76
2022/05/08 17:19:37;;;;;;;13.70;12.90;;;21.40;86.50;;;;;;4973075;28;20491;-76
2022/05/08 17:22:04;;;;;;;13.03;12.23;;;21.40;85.90;;;;;;4973007;28;20455;-76
2022/05/08 17:24:31;;;;;;;14.27;13.57;;;21.30;86.00;;;;;;4972891;28;20958;-76
2022/05/08 17:29:44;;;;;;;13.70;13.03;;;21.20;86.60;;;;;;4972535;28;20474;-77
2022/05/08 17:32:11;;;;;;;13.50;12.90;;;21.20;86.80;;;;;;4972503;28;21028;-76
2022/05/08 17:34:39;;;;;;;12.67;12.07;;;21.00;86.70;;;;;;4972686;28;20466;-76
2022/05/08 17:37:06;;;;;;;13.57;12.57;;;21.00;87.80;;;;;;4972828;28;20833;-76
2022/05/08 17:39:33;;;;;;;14.60;13.60;;;21.00;87.50;;;;;;4972735;28;20826;-76
2022/05/08 17:42:00;;;;;;;14.33;13.37;;;21.00;87.10;;;;;;4972356;28;20942;-76
2022/05/08 17:44:26;;;;;;;12.87;12.17;;;21.00;87.80;;;;;;4972377;28;20455;-76
2022/05/08 17:46:53;;;;;;;13.53;12.57;;;21.00;87.30;;;;;;4970100;28;20877;-76
2022/05/08 17:49:20;;;;;;;13.63;13.03;;;20.90;87.90;;;;;;4972374;28;20482;-76
2022/05/08 17:51:48;;;;;;;12.80;12.17;;;20.90;88.60;;;;;;4972296;28;20579;-76
2022/05/08 17:54:15;;;;;;;12.93;12.23;;;20.80;89.10;;;;;;4972386;28;20578;-75
2022/05/08 17:56:41;;;;;;;14.93;13.93;;;20.80;90.00;;;;;;4972167;28;20593;-75
2022/05/08 17:59:08;;;;;;;13.07;12.43;;;20.80;90.00;;;;;;4972040;28;20482;-75
2022/05/08 18:01:35;;;;;;;13.57;12.77;;;20.60;90.00;;;;;;4972505;28;20452;-76
2022/05/08 18:06:46;;;;;;;13.07;12.47;;;20.50;90.40;;;;;;4972128;28;20431;-76
2022/05/08 18:09:14;;;;;;;13.17;12.57;;;20.50;90.60;;;;;;4972408;28;20467;-76
2022/05/08 18:11:42;;;;;;;12.53;11.83;;;20.40;90.60;;;;;;4971801;28;20454;-75
2022/05/08 18:14:08;;;;;;;13.93;13.13;;;20.40;91.10;;;;;;4971894;28;20487;-76
2022/05/08 18:16:36;;;;;;;14.40;13.60;;;20.20;91.20;;;;;;4972263;28;20557;-75
2022/05/08 18:19:08;;;;;;;13.30;12.70;;;20.20;91.60;;;;;;4972152;28;20966;-75
2022/05/08 18:21:34;;;;;;;13.07;12.37;;;20.20;91.90;;;;;;4972110;28;20548;-75
2022/05/08 18:24:01;;;;;;;13.23;12.40;;;20.20;92.20;;;;;;4972023;28;20459;-74
2022/05/08 18:26:29;;;;;;;14.20;13.30;;;20.10;92.50;;;;;;4972038;28;20911;-75
2022/05/08 18:28:59;;;;;;;14.73;13.93;;;19.90;92.80;;;;;;4971576;28;20949;-75
2022/05/08 18:31:26;;;;;;;14.03;13.33;;;19.90;93.20;;;;;;4971951;28;20812;-75
2022/05/08 18:33:53;;;;;;;13.90;13.17;;;19.90;93.60;;;;;;4971341;28;20495;-75
2022/05/08 18:36:20;;;;;;;13.20;12.50;;;19.80;94.10;;;;;;4971901;28;20463;-75
2022/05/08 18:38:46;;;;;;;14.17;13.20;;;19.70;94.50;;;;;;4971710;28;20459;-74
2022/05/08 18:41:13;;;;;;;13.60;12.80;;;19.60;95.10;;;;;;4971649;28;20942;-74
2022/05/08 18:43:42;;;;;;;13.90;13.30;;;19.50;95.40;;;;;;4971487;28;20458;-75
2022/05/08 18:46:09;;;;;;;13.73;13.03;;;19.40;95.90;;;;;;4971688;28;20550;-75
2022/05/08 18:48:36;;;;;;;14.17;13.27;;;19.30;96.30;;;;;;4971362;28;21009;-75
2022/05/08 18:51:02;;;;;;;13.77;12.97;;;19.20;96.80;;;;;;4971597;28;20806;-75
2022/05/08 18:53:29;;;;;;;14.10;13.20;;;19.20;97.70;;;;;;4971722;28;20542;-75
2022/05/08 18:55:56;;;;;;;14.30;13.50;;;19.10;98.00;;;;;;4971335;28;20459;-75
2022/05/08 18:58:22;;;;;;;14.73;13.60;;;19.00;98.60;;;;;;4974121;28;20458;-74
2022/05/08 19:00:50;;;;;;;14.40;13.60;;;18.90;99.50;;;;;;4975267;28;20458;-74